Time;durP1;ratioP1;P1;durP2;ratioP2;P2;SDS_P1;SDS_P2;PMS_P1;PMS_P2;Temp;Humidity;BMP_temperature;BMP_pressure;BME280_temperature;BME280_humidity;BME280_pressure;Samples;Min_cycle;Max_cycle;Signal;HPM_P1;HPM_P2
2022/11/13 00:00:43;;;;;;;12.93;11.00;;;;;;;7.95;77.90;102574.78;5062792;28;20329;-87
2022/11/13 00:03:08;;;;;;;14.60;10.52;;;;;;;8.02;78.34;102586.19;5087452;28;20445;-88
2022/11/13 00:05:34;;;;;;;14.88;11.00;;;;;;;8.04;77.87;102584.44;5081694;28;20046;-87
2022/11/13 00:08:00;;;;;;;16.52;10.75;;;;;;;7.94;78.19;102570.41;5085978;28;20553;-87
2022/11/13 00:10:25;;;;;;;17.17;10.43;;;;;;;7.99;78.27;102583.56;5065360;28;20055;-87
2022/11/13 00:12:50;;;;;;;15.50;11.40;;;;;;;7.92;78.53;102575.66;5084917;28;20094;-87
2022/11/13 00:15:16;;;;;;;15.27;10.70;;;;;;;8.07;78.44;102585.31;5077110;28;20166;-87
2022/11/13 00:17:41;;;;;;;13.68;10.15;;;;;;;7.92;77.90;102564.25;5087107;28;20039;-87
2022/11/13 00:20:07;;;;;;;12.05;9.50;;;;;;;7.94;78.06;102580.94;5083197;28;20035;-87
2022/11/13 00:22:32;;;;;;;12.10;9.45;;;;;;;7.80;77.61;102561.66;5082713;28;20024;-87
2022/11/13 00:24:57;;;;;;;15.45;10.10;;;;;;;7.73;77.26;102559.91;5081509;28;20111;-87
2022/11/13 00:27:22;;;;;;;13.05;9.73;;;;;;;7.70;77.41;102568.69;5067058;28;20033;-87
2022/11/13 00:29:48;;;;;;;13.32;9.82;;;;;;;7.71;77.44;102572.19;5083002;28;20026;-87
2022/11/13 00:32:13;;;;;;;13.55;9.77;;;;;;;7.64;77.47;102558.13;5087299;28;20483;-87
2022/11/13 00:34:38;;;;;;;14.75;9.77;;;;;;;7.49;77.23;102542.34;5068298;28;20031;-87
2022/11/13 00:37:03;;;;;;;13.95;9.07;;;;;;;7.52;77.03;102547.63;5066221;28;20039;-87
2022/11/13 00:39:29;;;;;;;13.60;9.75;;;;;;;7.52;76.99;102559.03;5085100;28;20043;-87
2022/11/13 00:41:54;;;;;;;11.50;8.70;;;;;;;7.43;77.08;102552.91;5089522;28;20413;-87
2022/11/13 00:44:19;;;;;;;12.98;9.27;;;;;;;7.48;77.53;102551.13;5066240;28;20039;-87
2022/11/13 00:46:44;;;;;;;12.07;9.18;;;;;;;7.36;77.03;102542.34;5064328;28;20406;-87
2022/11/13 00:49:10;;;;;;;13.32;9.32;;;;;;;7.49;77.46;102545.00;5088935;28;20035;-87
2022/11/13 00:51:35;;;;;;;12.60;9.23;;;;;;;7.46;76.52;102544.97;5069916;28;20028;-87
2022/11/13 00:54:00;;;;;;;13.35;9.82;;;;;;;7.37;77.04;102525.72;5090712;28;20028;-87
2022/11/13 00:56:26;;;;;;;12.20;8.23;;;;;;;7.27;76.48;102521.28;5068710;28;20024;-86
2022/11/13 00:58:51;;;;;;;13.60;9.38;;;;;;;7.33;75.88;102538.88;5069487;28;20518;-87
2022/11/13 01:01:18;;;;;;;11.32;8.30;;;;;;;7.29;76.11;102543.25;5090353;28;20024;-87
2022/11/13 01:03:43;;;;;;;11.48;8.07;;;;;;;7.23;76.67;102537.06;5068597;28;20021;-87
2022/11/13 01:06:17;;;;;;;15.20;9.55;;;;;;;7.18;77.29;102533.56;5088842;28;20085;-87
2022/11/13 01:08:42;;;;;;;12.70;9.48;;;;;;;7.25;77.73;102548.50;5086572;28;20461;-87
2022/11/13 01:11:16;;;;;;;13.95;9.23;;;;;;;7.22;77.49;102541.47;5090218;28;20680;-87
2022/11/13 01:13:45;;;;;;;12.23;9.38;;;;;;;7.20;77.67;102530.06;5068884;28;20034;-88
2022/11/13 01:16:12;;;;;;;12.50;9.50;;;;;;;7.24;77.40;102538.84;5090758;28;20073;-88
2022/11/13 01:18:38;;;;;;;11.60;9.20;;;;;;;7.24;77.61;102538.84;5088136;28;20081;-88
2022/11/13 01:21:10;;;;;;;12.13;9.05;;;;;;;7.29;78.00;102535.34;5090179;28;20371;-87
2022/11/13 01:23:35;;;;;;;12.52;9.38;;;;;;;7.18;77.29;102533.56;5087196;28;20410;-87
2022/11/13 01:26:13;;;;;;;13.73;9.73;;;;;;;7.02;77.65;102522.16;5070565;28;20069;-87
2022/11/13 01:28:39;;;;;;;12.63;8.73;;;;;;;7.08;77.80;102536.19;5089391;28;20035;-88
2022/11/13 01:31:11;;;;;;;13.80;9.13;;;;;;;6.94;78.21;102516.00;5090132;28;20035;-87
2022/11/13 01:33:37;;;;;;;;;;;;;;;7.18;76.62;102534.47;5081914;28;20024;-87
2022/11/13 01:36:10;;;;;;;14.63;8.48;;;;;;;7.03;78.64;102516.91;5063704;28;20003;-87
2022/11/13 01:38:35;;;;;;;12.48;8.65;;;;;;;7.04;78.12;102508.16;5088623;28;20028;-87
2022/11/13 01:41:00;;;;;;;10.77;8.73;;;;;;;6.96;77.99;102502.00;5091260;28;20479;-87
2022/11/13 01:43:32;;;;;;;11.88;8.70;;;;;;;7.05;77.88;102523.06;5086140;28;20119;-87
2022/11/13 01:45:57;;;;;;;12.52;8.40;;;;;;;7.00;78.30;102521.28;5068797;28;20034;-87
2022/11/13 01:48:35;;;;;;;15.38;9.00;;;;;;;6.81;78.03;102494.09;5067474;28;20043;-87
2022/11/13 01:51:06;;;;;;;14.55;9.32;;;;;;;6.86;78.84;102506.38;5086573;28;20042;-87
2022/11/13 01:53:31;;;;;;;12.65;9.23;;;;;;;6.92;78.05;102515.13;5071758;28;20040;-88
2022/11/13 01:55:56;;;;;;;11.68;8.88;;;;;;;6.81;77.66;102505.47;5088910;28;20506;-87
2022/11/13 01:58:22;;;;;;;10.00;8.23;;;;;;;6.83;77.15;102508.09;5070601;28;20027;-88
2022/11/13 02:00:47;;;;;;;10.77;8.82;;;;;;;6.60;77.49;102480.00;5064100;28;20021;-87
2022/11/13 02:03:12;;;;;;;11.38;9.13;;;;;;;6.68;79.27;102477.41;5069020;28;20055;-87
2022/11/13 02:05:38;;;;;;;11.32;8.63;;;;;;;6.72;78.41;102483.56;5088292;28;20479;-88
2022/11/13 02:08:03;;;;;;;10.48;8.20;;;;;;;6.83;77.79;102502.84;5073199;28;20106;-87
2022/11/13 02:10:28;;;;;;;15.55;9.73;;;;;;;6.62;77.30;102478.28;5070559;28;20059;-87
2022/11/13 02:12:54;;;;;;;10.95;8.75;;;;;;;6.66;78.06;102489.66;5089231;28;20055;-87
2022/11/13 02:15:22;;;;;;;11.50;8.68;;;;;;;6.72;78.26;102483.56;5067218;28;20544;-87
2022/11/13 02:17:54;;;;;;;12.45;8.50;;;;;;;6.83;78.76;102493.19;5086504;28;20024;-87
2022/11/13 02:20:29;;;;;;;14.45;8.80;;;;;;;6.77;78.04;102476.56;5069556;28;20506;-87
2022/11/13 02:23:05;;;;;;;13.07;9.32;;;;;;;6.78;77.63;102486.19;5090665;28;20491;-87
2022/11/13 02:25:31;;;;;;;13.10;9.55;;;;;;;6.62;77.68;102462.50;5084386;28;20024;-87
2022/11/13 02:27:57;;;;;;;12.48;8.88;;;;;;;6.63;77.94;102466.88;5086835;28;20024;-88
2022/11/13 02:30:28;;;;;;;12.10;8.80;;;;;;;6.69;77.27;102478.28;5068661;28;20554;-87
2022/11/13 02:32:55;;;;;;;11.27;8.73;;;;;;;6.67;77.88;102472.13;5065740;28;20028;-87
2022/11/13 02:35:26;;;;;;;11.30;8.10;;;;;;;6.63;77.80;102461.63;5088061;28;20028;-88
2022/11/13 02:37:53;;;;;;;10.90;8.00;;;;;;;6.54;77.76;102455.47;5086583;28;20039;-88
2022/11/13 02:40:19;;;;;;;15.30;9.15;;;;;;;6.59;78.14;102464.25;5070274;28;20035;-88
2022/11/13 02:42:44;;;;;;;12.70;9.15;;;;;;;6.49;78.11;102447.59;5088263;28;20069;-88
2022/11/13 02:45:10;;;;;;;13.65;8.77;;;;;;;6.56;78.75;102462.47;5061392;28;20030;-88
2022/11/13 02:47:35;;;;;;;12.02;9.15;;;;;;;6.53;79.71;102456.38;5088545;28;20403;-87
2022/11/13 02:50:01;;;;;;;13.55;8.75;;;;;;;6.47;77.96;102451.06;5089111;28;20028;-87
2022/11/13 02:52:26;;;;;;;11.75;8.95;;;;;;;6.55;77.92;102467.75;5068768;28;20426;-87
2022/11/13 02:54:52;;;;;;;13.10;8.45;;;;;;;6.46;78.14;102447.56;5066781;28;20032;-87
2022/11/13 02:57:17;;;;;;;12.27;8.70;;;;;;;6.56;77.97;102462.47;5089092;28;20115;-87
2022/11/13 02:59:43;;;;;;;10.82;8.18;;;;;;;6.52;78.46;102460.72;5086265;28;20035;-88
2022/11/13 03:02:08;;;;;;;12.02;8.45;;;;;;;6.47;78.60;102454.56;5087417;28;20067;-88
2022/11/13 03:04:34;;;;;;;13.93;8.68;;;;;;;6.40;79.44;102450.19;5066754;28;20028;-88
2022/11/13 03:06:59;;;;;;;14.07;9.13;;;;;;;6.35;79.07;102444.91;5072726;28;20024;-88
2022/11/13 03:09:24;;;;;;;12.23;9.60;;;;;;;6.42;78.52;102455.44;5086506;28;20077;-88
2022/11/13 03:11:50;;;;;;;10.75;8.10;;;;;;;6.41;79.77;102440.56;5071101;28;20028;-89
2022/11/13 03:14:15;;;;;;;12.98;8.85;;;;;;;6.56;79.59;102448.47;5063912;28;20531;-88
2022/11/13 03:16:40;;;;;;;10.65;8.45;;;;;;;6.56;79.13;102454.59;5070119;28;20057;-87
2022/11/13 03:19:06;;;;;;;13.48;8.77;;;;;;;6.46;78.87;102430.94;5067537;28;20051;-88
2022/11/13 03:21:32;;;;;;;13.10;8.77;;;;;;;6.49;78.51;102444.97;5068319;28;20016;-88
2022/11/13 03:23:57;;;;;;;11.68;8.35;;;;;;;6.31;78.75;102419.50;5069028;28;20502;-88
2022/11/13 03:26:23;;;;;;;13.32;9.77;;;;;;;6.38;79.21;102423.03;5085756;28;20031;-88
2022/11/13 03:28:49;;;;;;;12.73;9.05;;;;;;;6.41;79.31;102430.91;5088439;28;20440;-88
2022/11/13 03:31:15;;;;;;;12.18;8.40;;;;;;;6.49;79.03;102431.81;5082868;28;20021;-87
2022/11/13 03:33:40;;;;;;;10.38;7.97;;;;;;;6.38;78.63;102418.63;5088397;28;20061;-88
2022/11/13 03:36:05;;;;;;;13.68;9.05;;;;;;;6.39;78.66;102416.91;5070642;28;20101;-88
2022/11/13 03:38:31;;;;;;;12.23;8.30;;;;;;;6.43;78.57;102429.16;5086573;28;20028;-88
2022/11/13 03:40:57;;;;;;;11.50;8.43;;;;;;;6.38;78.64;102420.38;5076633;28;20058;-88
2022/11/13 03:43:22;;;;;;;12.02;8.50;;;;;;;6.37;78.55;102418.66;5064438;28;20443;-88
2022/11/13 03:45:47;;;;;;;12.40;8.00;;;;;;;6.44;78.40;102428.31;5071419;28;20406;-88
2022/11/13 03:48:14;;;;;;;10.27;8.10;;;;;;;6.44;78.98;102428.31;5066029;28;20090;-88
2022/11/13 03:50:45;;;;;;;9.40;7.70;;;;;;;6.36;79.04;102407.25;5070192;28;20511;-88
2022/11/13 03:53:11;;;;;;;13.15;7.90;;;;;;;6.43;78.59;102417.78;5087753;28;20100;-88
2022/11/13 03:55:36;;;;;;;13.45;8.65;;;;;;;6.35;78.50;102400.25;5063336;28;20123;-88
2022/11/13 03:58:02;;;;;;;12.52;7.72;;;;;;;6.39;78.65;102407.28;5085767;28;20026;-88
2022/11/13 04:00:27;;;;;;;11.05;8.32;;;;;;;6.50;78.85;102411.69;5066440;28;20537;-88
2022/11/13 04:02:52;;;;;;;11.05;8.45;;;;;;;6.48;78.66;102401.19;5061797;28;20399;-88
2022/11/13 04:05:18;;;;;;;10.77;7.47;;;;;;;6.55;78.74;102402.91;5086631;28;20031;-88
2022/11/13 04:07:43;;;;;;;11.65;8.20;;;;;;;6.50;78.87;102394.16;5072469;28;20024;-87
2022/11/13 04:10:09;;;;;;;9.75;7.95;;;;;;;6.62;79.73;102401.16;5066169;28;20040;-88
2022/11/13 04:12:34;;;;;;;10.80;8.27;;;;;;;6.63;79.51;102390.69;5085575;28;20036;-87
2022/11/13 04:14:59;;;;;;;11.82;8.30;;;;;;;6.62;79.41;102388.03;5083734;28;20021;-87
2022/11/13 04:17:24;;;;;;;11.05;8.40;;;;;;;6.73;79.46;102395.94;5089311;28;20028;-89
2022/11/13 04:19:50;;;;;;;12.32;8.95;;;;;;;6.65;78.81;102388.91;5068855;28;20110;-87
2022/11/13 04:22:15;;;;;;;12.63;8.60;;;;;;;6.63;79.09;102390.69;5087201;28;20024;-88
2022/11/13 04:24:40;;;;;;;11.63;8.20;;;;;;;6.62;78.62;102383.69;5070931;28;20059;-88
2022/11/13 04:27:05;;;;;;;15.95;8.35;;;;;;;6.67;78.29;102381.06;5073391;28;20051;-88
2022/11/13 04:29:31;;;;;;;10.73;7.70;;;;;;;6.63;78.37;102377.53;5073807;28;20046;-88
2022/11/13 04:31:56;;;;;;;11.77;7.93;;;;;;;6.61;78.54;102365.25;5092212;28;20067;-87
2022/11/13 04:34:21;;;;;;;10.73;7.97;;;;;;;6.59;77.94;102365.28;5072676;28;20113;-87
2022/11/13 04:36:47;;;;;;;10.30;8.30;;;;;;;6.53;78.08;102367.91;5091685;28;20489;-87
2022/11/13 04:39:12;;;;;;;9.45;8.05;;;;;;;6.50;78.50;102364.38;5071014;28;20115;-87
2022/11/13 04:44:21;;;;;;;14.30;9.38;;;;;;;6.51;79.53;102363.50;5089542;28;20051;-88
2022/11/13 04:46:46;;;;;;;12.88;8.45;;;;;;;6.56;78.74;102369.63;5083213;28;20045;-87
2022/11/13 04:49:11;;;;;;;16.08;9.13;;;;;;;6.44;78.41;102353.88;5091440;28;20046;-87
2022/11/13 04:51:37;;;;;;;13.77;8.52;;;;;;;6.37;77.95;102355.59;5073849;28;20031;-88
2022/11/13 04:54:02;;;;;;;11.93;8.13;;;;;;;6.36;78.44;102359.97;5071801;28;20494;-87
2022/11/13 04:56:27;;;;;;;13.43;8.90;;;;;;;6.29;78.84;102357.34;5087567;28;20039;-88
2022/11/13 04:58:53;;;;;;;12.05;9.00;;;;;;;6.21;78.49;102345.97;5074059;28;20017;-87
2022/11/13 05:01:18;;;;;;;11.85;8.75;;;;;;;6.22;79.12;102345.94;5086247;28;20533;-88
2022/11/13 05:03:43;;;;;;;12.25;8.98;;;;;;;6.36;78.74;102362.63;5074495;28;20038;-88
2022/11/13 05:06:09;;;;;;;12.18;8.73;;;;;;;6.27;78.41;102349.47;5079442;28;20384;-88
2022/11/13 05:08:35;;;;;;;12.00;8.38;;;;;;;6.29;78.82;102350.31;5074271;28;20082;-88
2022/11/13 05:11:01;;;;;;;10.43;8.30;;;;;;;6.37;78.43;102364.34;5091920;28;20036;-88
2022/11/13 05:13:30;;;;;;;13.35;8.80;;;;;;;6.36;79.08;102364.38;5089878;28;20044;-88
2022/11/13 05:16:07;;;;;;;15.70;9.23;;;;;;;6.42;78.98;102363.50;5090183;28;20028;-88
2022/11/13 05:18:35;;;;;;;10.88;8.32;;;;;;;6.38;78.25;102367.84;5069562;28;20024;-88
2022/11/13 05:21:01;;;;;;;15.85;9.40;;;;;;;6.20;77.94;102342.47;5089112;28;20085;-88
2022/11/13 05:23:26;;;;;;;11.57;8.57;;;;;;;6.12;77.74;102339.81;5071415;28;20487;-89
2022/11/13 05:25:52;;;;;;;11.98;8.50;;;;;;;6.15;78.12;102354.69;5089071;28;20467;-87
2022/11/13 05:28:17;;;;;;;10.80;8.10;;;;;;;6.04;77.69;102353.78;5073981;28;20024;-87
2022/11/13 05:30:43;;;;;;;12.13;8.50;;;;;;;5.92;77.83;102340.59;5086426;28;20502;-88
2022/11/13 05:33:08;;;;;;;13.20;8.88;;;;;;;5.95;78.45;102338.88;5073748;28;20024;-87
2022/11/13 05:35:34;;;;;;;12.30;7.95;;;;;;;5.85;78.08;102326.56;5071991;28;20039;-88
2022/11/13 05:38:00;;;;;;;16.15;8.63;;;;;;;5.82;78.14;102322.16;5085298;28;20085;-87
2022/11/13 05:40:26;;;;;;;10.77;7.78;;;;;;;5.76;77.99;102323.91;5072253;28;20517;-87
2022/11/13 05:42:55;;;;;;;13.60;8.40;;;;;;;5.74;77.60;102331.78;5089670;28;20095;-87
2022/11/13 05:45:21;;;;;;;10.50;7.50;;;;;;;5.65;77.54;102331.75;5071042;28;20040;-88
2022/11/13 05:47:46;;;;;;;12.10;8.18;;;;;;;5.47;77.64;102321.19;5072804;28;20131;-87
2022/11/13 05:50:11;;;;;;;11.23;8.13;;;;;;;5.53;77.38;102340.44;5073603;28;20111;-88
2022/11/13 05:52:37;;;;;;;12.18;8.13;;;;;;;5.47;77.36;102337.78;5089111;28;20058;-88
2022/11/13 05:55:03;;;;;;;10.98;8.02;;;;;;;5.37;78.80;102326.38;5091129;28;20404;-88
2022/11/13 05:57:28;;;;;;;11.25;7.88;;;;;;;5.31;78.42;102328.06;5090625;28;20082;-87
2022/11/13 05:59:54;;;;;;;10.77;8.55;;;;;;;5.33;78.75;102331.59;5086606;28;20028;-87
2022/11/13 06:02:19;;;;;;;11.38;8.05;;;;;;;5.30;78.16;102336.81;5086295;28;20048;-88
2022/11/13 06:04:44;;;;;;;13.68;8.68;;;;;;;5.29;78.06;102342.94;5086322;28;20070;-87
2022/11/13 06:07:09;;;;;;;10.00;8.15;;;;;;;5.19;79.44;102335.88;5085553;28;20048;-87
2022/11/13 06:09:35;;;;;;;9.70;7.88;;;;;;;5.04;78.66;102316.56;5068637;28;20024;-87
2022/11/13 06:12:00;;;;;;;10.82;8.00;;;;;;;5.05;78.98;102328.81;5087131;28;20028;-88
2022/11/13 06:14:25;;;;;;;10.57;7.97;;;;;;;4.94;79.12;102312.13;5063145;28;20032;-87
2022/11/13 06:16:50;;;;;;;12.30;7.80;;;;;;;5.05;78.19;102314.81;5069800;28;20024;-88
2022/11/13 06:19:16;;;;;;;12.52;7.97;;;;;;;5.07;79.53;102321.81;5073465;28;20544;-87
2022/11/13 06:21:41;;;;;;;14.35;8.52;;;;;;;5.03;78.46;102317.41;5069997;28;20021;-87
2022/11/13 06:24:09;;;;;;;11.68;8.30;;;;;;;4.93;78.46;102305.13;5068893;28;20062;-87
2022/11/13 06:26:35;;;;;;;12.85;7.75;;;;;;;4.85;78.40;102305.09;5086818;28;20074;-88
2022/11/13 06:29:02;;;;;;;12.23;8.57;;;;;;;4.85;78.08;102306.84;5090006;28;20103;-87
2022/11/13 06:31:31;;;;;;;12.50;8.40;;;;;;;4.87;78.29;102312.97;5089314;28;20040;-87
2022/11/13 06:33:58;;;;;;;14.05;8.82;;;;;;;4.80;78.79;102312.06;5085341;28;20490;-87
2022/11/13 06:36:27;;;;;;;10.65;7.70;;;;;;;4.85;78.57;102304.22;5070602;28;20476;-87
2022/11/13 06:38:52;;;;;;;12.65;8.45;;;;;;;4.88;79.78;102298.09;5065012;28;20028;-87
2022/11/13 06:41:28;;;;;;;13.02;8.45;;;;;;;5.05;79.99;102315.69;5082136;28;20048;-87
2022/11/13 06:43:53;;;;;;;10.57;7.53;;;;;;;5.09;79.45;102306.13;5089380;28;20024;-87
2022/11/13 06:46:21;;;;;;;11.30;8.57;;;;;;;5.13;79.72;102302.66;5063958;28;20097;-87
2022/11/13 06:48:47;;;;;;;9.10;7.47;;;;;;;5.17;79.23;102298.28;5072834;28;20062;-88
2022/11/13 06:51:17;;;;;;;10.85;7.90;;;;;;;5.34;79.12;102312.38;5086766;28;20678;-87
2022/11/13 06:53:42;;;;;;;12.70;8.90;;;;;;;5.32;79.50;102306.25;5068515;28;20024;-88
2022/11/13 06:56:08;;;;;;;11.43;8.43;;;;;;;5.40;78.85;102307.13;5085877;28;20110;-87
2022/11/13 06:58:34;;;;;;;10.20;8.07;;;;;;;5.39;78.01;102310.63;5069846;28;20043;-87
2022/11/13 07:01:06;;;;;;;13.43;7.82;;;;;;;5.27;76.97;102310.56;5067000;28;20021;-87
2022/11/13 07:03:32;;;;;;;;;;;;;;;5.28;77.00;102305.34;5084219;28;20051;-88
2022/11/13 07:06:01;;;;;;;14.93;8.00;;;;;;;4.98;78.33;102279.81;5069153;28;19912;-88
2022/11/13 07:08:26;;;;;;;11.40;8.02;;;;;;;5.01;78.55;102292.97;5082866;28;20282;-87
2022/11/13 07:10:54;;;;;;;9.27;6.78;;;;;;;5.08;78.45;102304.34;5068007;28;20052;-88
2022/11/13 07:13:19;;;;;;;9.48;7.15;;;;;;;4.99;78.09;102304.28;5070166;28;20399;-88
2022/11/13 07:15:44;;;;;;;9.50;6.90;;;;;;;4.81;77.34;102284.97;5069274;28;20038;-88
2022/11/13 07:18:10;;;;;;;7.93;7.13;;;;;;;4.83;77.55;102295.47;5088470;28;20028;-87
2022/11/13 07:20:35;;;;;;;10.25;7.78;;;;;;;4.87;78.32;102289.38;5069008;28;20028;-87
2022/11/13 07:23:02;;;;;;;11.95;6.95;;;;;;;4.79;76.41;102272.72;5069833;28;20499;-88
2022/11/13 07:25:28;;;;;;;9.75;6.82;;;;;;;4.73;77.69;102275.31;5070239;28;20490;-87
2022/11/13 07:27:53;;;;;;;10.35;8.30;;;;;;;4.72;78.17;102277.03;5070229;28;20374;-88
2022/11/13 07:30:19;;;;;;;10.15;7.07;;;;;;;4.83;77.24;102290.22;5082580;28;20170;-87
2022/11/13 07:32:44;;;;;;;10.27;8.18;;;;;;;4.90;77.17;102297.25;5089716;28;20051;-88
2022/11/13 07:35:10;;;;;;;10.52;8.35;;;;;;;4.81;77.47;102289.34;5052931;28;20041;-88
2022/11/13 07:37:35;;;;;;;9.23;7.30;;;;;;;4.82;77.54;102302.44;5090448;28;20027;-88
2022/11/13 07:40:01;;;;;;;12.50;9.48;;;;;;;4.77;77.84;102284.94;5068696;28;20067;-88
2022/11/13 07:42:26;;;;;;;12.25;8.35;;;;;;;4.79;78.02;102286.69;5070106;28;20031;-88
2022/11/13 07:44:52;;;;;;;12.52;8.52;;;;;;;4.75;78.02;102274.44;5068384;28;20054;-88
2022/11/13 07:47:17;;;;;;;11.60;7.80;;;;;;;4.70;78.70;102276.16;5070713;28;20390;-88
2022/11/13 07:49:42;;;;;;;11.68;7.45;;;;;;;4.73;79.07;102278.78;5087424;28;20466;-88
2022/11/13 07:52:08;;;;;;;10.38;7.68;;;;;;;4.73;79.77;102270.06;5085419;28;20020;-88
2022/11/13 07:54:33;;;;;;;9.05;7.90;;;;;;;4.82;80.06;102271.00;5085587;28;20040;-87
2022/11/13 07:56:58;;;;;;;10.13;7.85;;;;;;;5.43;79.98;102294.06;5084246;28;20023;-87
2022/11/13 07:59:24;;;;;;;12.32;8.63;;;;;;;5.99;79.17;102284.66;5082228;28;20029;-88
2022/11/13 08:01:49;;;;;;;9.77;7.65;;;;;;;6.46;77.61;102282.06;5068043;28;20392;-86
2022/11/13 08:04:14;;;;;;;11.10;7.95;;;;;;;6.86;77.08;102266.28;5091678;28;20020;-86
2022/11/13 08:06:40;;;;;;;10.27;7.93;;;;;;;7.22;76.19;102280.19;5068727;28;20625;-86
2022/11/13 08:09:05;;;;;;;12.65;8.30;;;;;;;7.83;74.87;102288.72;5094116;28;20024;-86
2022/11/13 08:11:30;;;;;;;10.60;7.65;;;;;;;8.56;74.00;102289.09;5074148;28;20034;-86
2022/11/13 08:13:55;;;;;;;11.73;8.55;;;;;;;9.05;72.59;102281.59;5072134;28;20051;-85
2022/11/13 08:16:22;;;;;;;11.93;8.02;;;;;;;9.82;70.02;102284.16;5084902;28;20103;-85
2022/11/13 08:18:48;;;;;;;9.93;7.55;;;;;;;10.45;67.81;102281.47;5092254;28;20536;-86
2022/11/13 08:21:13;;;;;;;10.77;7.30;;;;;;;10.35;67.76;102274.59;5071174;28;20016;-86
2022/11/13 08:23:40;;;;;;;10.45;7.15;;;;;;;10.44;67.55;102271.81;5071871;28;20028;-86
2022/11/13 08:26:06;;;;;;;9.13;7.22;;;;;;;11.22;64.38;102273.00;5071801;28;20024;-86
2022/11/13 08:28:32;;;;;;;10.52;7.47;;;;;;;12.29;63.44;102277.75;5092518;28;20085;-85
2022/11/13 08:30:58;;;;;;;9.32;7.57;;;;;;;13.24;61.06;102276.16;5091009;28;20071;-86
2022/11/13 08:33:23;;;;;;;11.43;7.18;;;;;;;13.30;58.88;102266.28;5090222;28;20391;-86
2022/11/13 08:35:56;;;;;;;10.50;7.07;;;;;;;14.39;58.56;102272.63;5081505;28;20036;-87
2022/11/13 08:38:22;;;;;;;8.43;6.93;;;;;;;15.51;52.99;102272.19;5093455;28;20031;-87
2022/11/13 08:40:48;;;;;;;9.57;6.93;;;;;;;14.93;52.55;102252.19;5090216;28;20016;-86
2022/11/13 08:43:13;;;;;;;8.68;6.63;;;;;;;14.20;55.94;102266.16;5091316;28;20027;-86
2022/11/13 08:45:39;;;;;;;9.70;6.88;;;;;;;13.31;58.69;102260.03;5072174;28;20028;-86
2022/11/13 08:48:05;;;;;;;8.43;7.30;;;;;;;12.70;59.23;102262.56;5089472;28;20491;-86
2022/11/13 08:50:32;;;;;;;9.95;7.38;;;;;;;12.47;59.42;102247.25;5062974;28;20031;-85
2022/11/13 08:52:59;;;;;;;9.95;7.35;;;;;;;12.00;61.27;102254.59;5070737;28;20063;-85
2022/11/13 08:55:25;;;;;;;9.65;8.65;;;;;;;11.55;61.71;102249.38;5071748;28;20024;-85
2022/11/13 08:57:51;;;;;;;10.85;8.40;;;;;;;11.24;63.16;102251.81;5069411;28;20086;-85
2022/11/13 09:00:17;;;;;;;10.05;8.40;;;;;;;11.25;63.22;102242.94;5068060;28;20074;-84
2022/11/13 09:02:43;;;;;;;9.10;7.90;;;;;;;12.22;60.25;102250.50;5085159;28;20020;-85
2022/11/13 09:05:09;;;;;;;9.15;7.90;;;;;;;14.43;55.43;102250.31;5083501;28;20486;-86
2022/11/13 09:07:35;;;;;;;9.15;7.53;;;;;;;16.75;50.52;102250.34;5089803;28;20056;-86
2022/11/13 09:10:00;;;;;;;8.50;6.75;;;;;;;18.69;45.05;102257.19;5090733;28;20066;-86
2022/11/13 09:12:25;;;;;;;8.65;7.22;;;;;;;20.11;41.75;102251.25;5070887;28;20051;-85
2022/11/13 09:14:50;;;;;;;8.02;6.85;;;;;;;21.30;39.16;102235.97;5086720;28;20032;-86
2022/11/13 09:17:16;;;;;;;7.15;6.45;;;;;;;22.35;34.85;102246.25;5068134;28;20047;-86
2022/11/13 09:19:42;;;;;;;7.97;6.75;;;;;;;23.21;33.75;102230.38;5070419;28;20024;-86
2022/11/13 09:22:07;;;;;;;8.88;5.88;;;;;;;24.11;32.22;102231.03;5090129;28;20016;-86
2022/11/13 09:24:32;;;;;;;6.60;5.43;;;;;;;24.61;31.32;102213.63;5066594;28;20033;-87
2022/11/13 09:26:57;;;;;;;6.50;5.70;;;;;;;24.89;30.05;102228.56;5087385;28;20119;-86
2022/11/13 09:29:24;;;;;;;6.53;5.50;;;;;;;25.41;29.78;102237.09;5065873;28;20475;-87
2022/11/13 09:31:50;;;;;;;6.45;5.85;;;;;;;25.98;29.44;102224.38;5087865;28;20471;-86
2022/11/13 09:34:15;;;;;;;8.15;6.63;;;;;;;26.56;28.37;102225.72;5068667;28;20082;-87
2022/11/13 09:36:40;;;;;;;7.00;6.30;;;;;;;27.12;27.34;102230.78;5070789;28;20028;-86
2022/11/13 09:39:06;;;;;;;10.15;6.57;;;;;;;27.39;26.87;102232.91;5088805;28;20470;-86
2022/11/13 09:41:38;;;;;;;7.80;6.32;;;;;;;27.78;27.65;102230.31;5091012;28;20028;-86
2022/11/13 09:44:12;;;;;;;7.82;6.25;;;;;;;27.99;25.56;102241.09;5067876;28;20478;-86
2022/11/13 09:46:46;;;;;;;9.02;6.82;;;;;;;28.25;25.68;102241.38;5088530;28;20044;-87
2022/11/13 09:49:27;;;;;;;6.90;6.25;;;;;;;28.55;28.42;102234.97;5063833;28;20674;-86
2022/11/13 09:51:57;;;;;;;8.40;6.30;;;;;;;28.81;24.24;102229.72;5084270;28;20085;-87
2022/11/13 09:54:22;;;;;;;7.20;5.78;;;;;;;29.18;24.11;102234.38;5072576;28;20035;-86
2022/11/13 09:57:04;;;;;;;6.13;5.63;;;;;;;29.73;25.62;102226.22;5091124;28;20506;-86
2022/11/13 09:59:29;;;;;;;6.63;5.93;;;;;;;29.35;22.94;102217.25;5071107;28;20386;-86
2022/11/13 10:02:06;;;;;;;6.80;5.47;;;;;;;29.54;25.50;102219.00;5068873;28;20289;-86
2022/11/13 10:05:03;;;;;;;5.97;5.47;;;;;;;29.85;25.11;102227.75;5087237;28;20031;-86
2022/11/13 10:07:46;;;;;;;7.00;5.75;;;;;;;29.99;25.53;102213.56;5088393;28;20050;-86
2022/11/13 10:10:42;;;;;;;7.32;6.63;;;;;;;29.54;23.90;102213.56;5085972;28;20490;-86
2022/11/13 10:13:13;;;;;;;6.50;5.88;;;;;;;29.46;22.05;102216.19;5062832;28;20073;-86
2022/11/13 10:15:41;;;;;;;7.38;5.57;;;;;;;29.68;21.35;102218.53;5085589;28;20023;-87
2022/11/13 10:18:15;;;;;;;6.13;5.53;;;;;;;30.31;23.07;102224.94;5083384;28;20024;-87
2022/11/13 10:20:48;;;;;;;6.78;6.22;;;;;;;30.49;22.54;102223.06;5089093;28;20505;-86
2022/11/13 10:23:36;;;;;;;6.57;5.88;;;;;;;31.09;24.34;102214.94;5057150;28;20028;-87
2022/11/13 10:26:16;;;;;;;6.85;5.78;;;;;;;31.40;22.77;102211.72;5080053;28;20040;-86
2022/11/13 10:28:41;;;;;;;6.65;5.90;;;;;;;31.63;19.95;102220.16;5069249;28;20107;-87
2022/11/13 10:31:11;;;;;;;6.43;5.82;;;;;;;31.80;20.74;102208.22;5088473;28;20107;-86
2022/11/13 10:33:37;;;;;;;6.00;5.40;;;;;;;32.07;19.86;102209.81;5089263;28;20030;-86
2022/11/13 10:36:21;;;;;;;5.85;5.35;;;;;;;32.61;22.53;102210.19;5071304;28;20379;-85
2022/11/13 10:39:01;;;;;;;5.80;5.30;;;;;;;32.73;21.09;102211.53;5070915;28;20228;-86
2022/11/13 10:41:26;;;;;;;6.10;5.50;;;;;;;32.21;18.21;102202.81;5062100;28;20020;-86
2022/11/13 10:43:58;;;;;;;5.80;5.30;;;;;;;31.90;20.88;102192.56;5068796;28;20024;-87
2022/11/13 10:46:26;;;;;;;5.80;5.30;;;;;;;32.30;18.76;102196.31;5086852;28;20036;-86
2022/11/13 10:48:51;;;;;;;5.85;5.35;;;;;;;33.02;19.25;102188.22;5086950;28;20103;-86
2022/11/13 10:51:28;;;;;;;7.15;5.90;;;;;;;33.35;20.66;102179.84;5087397;28;20185;-87
2022/11/13 10:53:54;;;;;;;6.32;5.60;;;;;;;33.75;18.45;102173.28;5088312;28;20370;-87
2022/11/13 10:56:28;;;;;;;6.53;5.85;;;;;;;34.24;19.44;102181.16;5085699;28;20154;-86
2022/11/13 10:59:13;;;;;;;5.32;4.85;;;;;;;34.54;19.15;102175.75;5066629;28;20028;-87
2022/11/13 11:01:40;;;;;;;5.38;4.88;;;;;;;35.09;16.97;102161.56;5079936;28;20016;-87
2022/11/13 11:04:10;;;;;;;5.82;5.20;;;;;;;34.83;16.92;102166.66;5084934;28;20105;-87
2022/11/13 11:06:38;;;;;;;5.93;5.30;;;;;;;34.58;17.00;102157.84;5088422;28;20459;-87
2022/11/13 11:09:05;;;;;;;5.63;5.13;;;;;;;34.12;17.14;102147.78;5061854;28;20043;-86
2022/11/13 11:14:21;;;;;;;5.43;5.03;;;;;;;33.62;18.13;102134.63;5077767;28;20115;-87
2022/11/13 11:16:48;;;;;;;;;;;;;;;34.66;20.53;102155.03;5087142;28;20390;-87
2022/11/13 11:19:14;;;;;;;5.45;4.95;;;;;;;33.90;17.11;102140.41;5088441;28;19912;-87
2022/11/13 11:21:41;;;;;;;5.07;4.32;;;;;;;34.20;16.97;102146.88;5084951;28;20493;-87
2022/11/13 11:24:28;;;;;;;5.10;4.30;;;;;;;34.36;18.33;102145.84;5062938;28;20494;-87
2022/11/13 11:27:09;;;;;;;4.70;4.30;;;;;;;34.16;18.63;102148.28;5088661;28;20036;-87
2022/11/13 11:29:41;;;;;;;5.53;5.03;;;;;;;34.01;16.48;102154.59;5081023;28;20425;-87
2022/11/13 11:32:31;;;;;;;5.07;4.68;;;;;;;33.97;19.06;102144.16;5066606;28;20077;-87